| time (UTC) | temp F | wind direction | speed MPH | gust MPH | rain 1hr in | rain 24hr in | rain mn in | humidity % | barometer mb |
| 20260510131528 | 61 | 164 | 7.0 | 11.0 | 0.02 | 0.02 | 0.02 | 80 | 1014.1 |
| 20260510130028 | 61 | 158 | 4.0 | 10.0 | 0.02 | 0.02 | 0.02 | 80 | 1014.1 |
| 20260510124526 | 61 | 163 | 3.0 | 12.0 | 0.01 | 0.01 | 0.01 | 79 | 1014.1 |
| 20260510123026 | 62 | 103 | 6.0 | 13.0 | 0.00 | 0.00 | 0.00 | 78 | 1014.2 |
| 20260510121529 | 62 | 154 | 4.0 | 9.0 | 0.00 | 0.00 | 0.00 | 77 | 1014.2 |
| 20260510120025 | 62 | 131 | 5.0 | 10.0 | 0.00 | 0.00 | 0.00 | 76 | 1014.3 |
| 20260510114535 | 63 | 112 | 4.0 | 10.0 | 0.00 | 0.00 | 0.00 | 74 | 1014.3 |
| 20260510113033 | 63 | 161 | 5.0 | 16.0 | 0.00 | 0.00 | 0.00 | 72 | 1014.3 |
| 20260510111530 | 63 | 129 | 9.0 | 17.0 | 0.00 | 0.00 | 0.00 | 71 | 1014.2 |
| 20260510110033 | 63 | 121 | 9.0 | 15.0 | 0.00 | 0.00 | 0.00 | 69 | 1014.3 |
| 20260510104520 | 64 | 175 | 11.0 | 17.0 | 0.00 | 0.00 | 0.00 | 65 | 1014.4 |
| 20260510103022 | 65 | 171 | 8.0 | 14.0 | 0.00 | 0.00 | 0.00 | 65 | 1014.4 |
| 20260510101519 | 65 | 111 | 7.0 | 11.0 | 0.00 | 0.00 | 0.00 | 62 | 1014.2 |
| 20260510100025 | 64 | 222 | 2.0 | 4.0 | 0.00 | 0.00 | 0.00 | 63 | 1014.2 |
| 20260510094517 | 64 | 259 | 2.0 | 5.0 | 0.00 | 0.00 | 0.00 | 62 | 1014.1 |
| 20260510093015 | 64 | 238 | 2.0 | 4.0 | 0.00 | 0.00 | 0.00 | 62 | 1014.3 |
| 20260510091514 | 65 | 230 | 0.0 | 4.0 | 0.00 | 0.00 | 0.00 | 62 | 1014.4 |
| 20260510090012 | 64 | 309 | 0.0 | 3.0 | 0.00 | 0.00 | 0.00 | 62 | 1014.5 |
| 20260510084509 | 64 | 317 | 1.0 | 3.0 | 0.00 | 0.00 | 0.00 | 61 | 1014.6 |
| 20260510083013 | 63 | 343 | 1.0 | 4.0 | 0.00 | 0.00 | 0.00 | 62 | 1014.7 |
| 20260510081506 | 64 | 300 | 0.0 | 3.0 | 0.00 | 0.00 | 0.00 | 62 | 1014.8 |
| 20260510080003 | 62 | 331 | 2.0 | 6.0 | 0.00 | 0.00 | 0.00 | 63 | 1014.9 |
| 20260510074607 | 62 | 303 | 2.0 | 6.0 | 0.00 | 0.00 | 0.00 | 64 | 1015.0 |
| 20260510073059 | 61 | 5 | 3.0 | 6.0 | 0.00 | 0.00 | 0.00 | 65 | 1015.2 |
| 20260510071602 | 60 | 289 | 4.0 | 9.0 | 0.00 | 0.00 | 0.00 | 66 | 1015.3 |
| 20260510070108 | 59 | 318 | 3.0 | 6.0 | 0.00 | 0.00 | 0.00 | 69 | 1015.4 |
| 20260510064559 | 58 | 319 | 3.0 | 8.0 | 0.00 | 0.00 | 0.00 | 70 | 1015.7 |
| 20260510063056 | 58 | 329 | 2.0 | 5.0 | 0.00 | 0.00 | 0.00 | 74 | 1015.8 |
| 20260510061549 | 56 | 317 | 2.0 | 5.0 | 0.00 | 0.00 | 0.00 | 78 | 1016.0 |
| 20260510060048 | 54 | 319 | 1.0 | 2.0 | 0.00 | 0.00 | 0.00 | 79 | 1016.0 |
| 20260510054553 | 54 | 319 | 0.0 | 2.0 | 0.00 | 0.00 | 0.00 | 79 | 1016.1 |
| 20260510053047 | 53 | 319 | 0.0 | 1.0 | 0.00 | 0.00 | 0.00 | 80 | 1016.1 |
| 20260510051546 | 53 | 330 | 0.0 | 3.0 | 0.00 | 0.00 | 0.00 | 80 | 1016.2 |
| 20260510050045 | 53 | 328 | 1.0 | 3.0 | 0.00 | 0.00 | 0.00 | 79 | 1016.1 |
| 20260510044543 | 53 | 327 | 0.0 | 2.0 | 0.00 | 0.00 | 0.00 | 79 | 1016.2 |
| 20260510043043 | 52 | 325 | 0.0 | 0.0 | 0.00 | 0.00 | 0.00 | 80 | 1016.3 |
| 20260510041549 | 52 | 324 | 0.0 | 0.0 | 0.00 | 0.00 | 0.00 | 80 | 1016.4 |
| 20260510040041 | 52 | 324 | 0.0 | 0.0 | 0.00 | 0.00 | 0.00 | 80 | 1016.4 |
| 20260510034539 | 52 | 324 | 0.0 | 0.0 | 0.00 | 0.00 | 0.00 | 80 | 1016.4 |
| 20260510033053 | 52 | 324 | 0.0 | 0.0 | 0.00 | 0.00 | 0.00 | 80 | 1016.5 |
| 20260510031538 | 52 | 324 | 0.0 | 0.0 | 0.00 | 0.00 | 0.00 | 80 | 1016.5 |
| 20260510030036 | 53 | 334 | 0.0 | 3.0 | 0.00 | 0.00 | 0.00 | 80 | 1016.6 |
| 20260510024532 | 54 | 326 | 0.0 | 4.0 | 0.00 | 0.00 | 0.00 | 79 | 1016.6 |
| 20260510023033 | 54 | 265 | 0.0 | 0.0 | 0.00 | 0.00 | 0.00 | 78 | 1016.7 |
| 20260510021536 | 54 | 265 | 0.0 | 0.0 | 0.00 | 0.00 | 0.00 | 78 | 1016.7 |
| 20260510020032 | 54 | 265 | 0.0 | 0.0 | 0.00 | 0.00 | 0.00 | 78 | 1016.7 |
| 20260510014532 | 54 | 265 | 0.0 | 0.0 | 0.00 | 0.00 | 0.00 | 78 | 1016.8 |
| 20260510013029 | 55 | 264 | 1.0 | 3.0 | 0.00 | 0.00 | 0.00 | 77 | 1016.9 |
| 20260510011525 | 55 | 263 | 0.0 | 0.0 | 0.00 | 0.00 | 0.00 | 77 | 1016.8 |
| 20260510010023 | 55 | 262 | 1.0 | 6.0 | 0.00 | 0.00 | 0.00 | 76 | 1016.8 |
| 20260510004521 | 56 | 324 | 0.0 | 3.0 | 0.00 | 0.00 | 0.00 | 74 | 1016.8 |
| 20260510003020 | 56 | 321 | 0.0 | 2.0 | 0.00 | 0.00 | 0.00 | 74 | 1016.8 |
| 20260510001521 | 58 | 322 | 1.0 | 4.0 | 0.00 | 0.00 | 0.00 | 71 | 1016.8 |
| 20260510000014 | 59 | 296 | 2.0 | 5.0 | 0.00 | 0.00 | 0.00 | 71 | 1016.7 |
| 20260509234514 | 59 | 226 | 1.0 | 4.0 | 0.00 | 0.00 | 0.00 | 70 | 1016.9 |
| 20260509233011 | 60 | 196 | 2.0 | 4.0 | 0.00 | 0.00 | 0.00 | 69 | 1016.9 |
| 20260509231511 | 59 | 215 | 2.0 | 5.0 | 0.00 | 0.00 | 0.00 | 70 | 1016.7 |
| 20260509230008 | 61 | 224 | 3.0 | 4.0 | 0.00 | 0.00 | 0.00 | 67 | 1016.8 |
| 20260509224506 | 62 | 194 | 3.0 | 7.0 | 0.00 | 0.00 | 0.00 | 64 | 1016.8 |
| 20260509223005 | 61 | 158 | 1.0 | 6.0 | 0.00 | 0.00 | 0.00 | 64 | 1016.9 |
| 20260509221502 | 60 | 238 | 0.0 | 2.0 | 0.00 | 0.00 | 0.00 | 67 | 1016.8 |
| 20260509220104 | 60 | 238 | 0.0 | 0.0 | 0.00 | 0.00 | 0.00 | 66 | 1016.6 |
| 20260509214558 | 61 | 302 | 0.0 | 4.0 | 0.00 | 0.00 | 0.00 | 64 | 1016.5 |
| 20260509213103 | 62 | 210 | 1.0 | 4.0 | 0.00 | 0.00 | 0.00 | 61 | 1016.4 |
| 20260509211604 | 62 | 225 | 2.0 | 4.0 | 0.00 | 0.00 | 0.00 | 61 | 1016.4 |
| 20260509210101 | 62 | 232 | 3.0 | 4.0 | 0.00 | 0.00 | 0.00 | 63 | 1016.5 |
| 20260509204603 | 63 | 198 | 1.0 | 3.0 | 0.00 | 0.00 | 0.00 | 62 | 1016.4 |
| 20260509203054 | 64 | 190 | 2.0 | 4.0 | 0.00 | 0.00 | 0.00 | 60 | 1016.3 |
| 20260509201554 | 64 | 182 | 0.0 | 3.0 | 0.00 | 0.00 | 0.00 | 58 | 1016.2 |
| 20260509200054 | 65 | 191 | 2.0 | 4.0 | 0.00 | 0.00 | 0.00 | 56 | 1016.0 |
| 20260509194556 | 66 | 185 | 2.0 | 4.0 | 0.00 | 0.00 | 0.00 | 53 | 1015.7 |
| 20260509193054 | 67 | 126 | 1.0 | 7.0 | 0.00 | 0.00 | 0.00 | 51 | 1015.5 |
| 20260509191555 | 68 | 119 | 3.0 | 10.0 | 0.00 | 0.00 | 0.00 | 50 | 1015.4 |
| 20260509190056 | 68 | 116 | 5.0 | 9.0 | 0.00 | 0.00 | 0.00 | 49 | 1015.2 |
| 20260509184550 | 69 | 119 | 3.0 | 6.0 | 0.00 | 0.00 | 0.00 | 47 | 1015.2 |
| 20260509183050 | 69 | 148 | 2.0 | 9.0 | 0.00 | 0.00 | 0.00 | 47 | 1015.1 |
| 20260509181557 | 70 | 165 | 4.0 | 9.0 | 0.00 | 0.00 | 0.00 | 46 | 1015.0 |
| 20260509180048 | 70 | 157 | 7.0 | 17.0 | 0.00 | 0.00 | 0.00 | 46 | 1014.9 |
| 20260509174556 | 70 | 149 | 10.0 | 18.0 | 0.00 | 0.00 | 0.00 | 46 | 1014.8 |
| 20260509173055 | 70 | 164 | 12.0 | 21.0 | 0.00 | 0.00 | 0.00 | 46 | 1014.6 |
| 20260509171551 | 70 | 190 | 10.0 | 20.0 | 0.00 | 0.00 | 0.00 | 46 | 1014.5 |
| 20260509170046 | 71 | 175 | 9.0 | 18.0 | 0.00 | 0.00 | 0.00 | 45 | 1014.4 |
| 20260509164547 | 71 | 201 | 11.0 | 22.0 | 0.00 | 0.00 | 0.00 | 44 | 1014.3 |
| 20260509163046 | 71 | 232 | 15.0 | 29.0 | 0.00 | 0.00 | 0.00 | 42 | 1014.3 |
| 20260509161543 | 72 | 211 | 17.0 | 29.0 | 0.00 | 0.00 | 0.00 | 40 | 1014.1 |
| 20260509160044 | 73 | 162 | 14.0 | 26.0 | 0.00 | 0.00 | 0.00 | 39 | 1014.1 |
| 20260509154556 | 73 | 177 | 21.0 | 35.0 | 0.00 | 0.00 | 0.00 | 37 | 1013.9 |
| 20260509153041 | 73 | 193 | 16.0 | 29.0 | 0.00 | 0.00 | 0.00 | 38 | 1013.9 |
| 20260509151543 | 73 | 223 | 17.0 | 31.0 | 0.00 | 0.00 | 0.00 | 38 | 1013.7 |
| 20260509150039 | 73 | 221 | 13.0 | 25.0 | 0.00 | 0.00 | 0.00 | 38 | 1013.8 |
| 20260509144558 | 75 | 167 | 11.0 | 25.0 | 0.00 | 0.00 | 0.00 | 38 | 1013.7 |
| 20260509143040 | 76 | 212 | 13.0 | 22.0 | 0.00 | 0.00 | 0.00 | 37 | 1013.7 |
| 20260509141539 | 77 | 160 | 8.0 | 18.0 | 0.00 | 0.00 | 0.00 | 39 | 1013.7 |
| 20260509140053 | 76 | 184 | 11.0 | 16.0 | 0.00 | 0.00 | 0.00 | 40 | 1013.9 |
| 20260509134533 | 76 | 201 | 9.0 | 15.0 | 0.00 | 0.00 | 0.00 | 40 | 1014.1 |
| 20260509133031 | 77 | 220 | 4.0 | 7.0 | 0.00 | 0.00 | 0.00 | 35 | 1014.2 |